sensor_id;sensor_type;location;lat;lon;timestamp;temperature;humidity
21883;DHT22;11106;47.864;13.054;2022-11-27T00:04:52;2.30;99.90
21883;DHT22;11106;47.864;13.054;2022-11-27T00:09:53;2.20;99.90
21883;DHT22;11106;47.864;13.054;2022-11-27T00:14:54;2.20;99.90
21883;DHT22;11106;47.864;13.054;2022-11-27T00:19:54;2.20;99.90
21883;DHT22;11106;47.864;13.054;2022-11-27T00:24:55;2.10;99.90
21883;DHT22;11106;47.864;13.054;2022-11-27T00:29:56;2.00;99.90
21883;DHT22;11106;47.864;13.054;2022-11-27T00:34:57;2.00;99.90
21883;DHT22;11106;47.864;13.054;2022-11-27T00:39:58;1.90;99.90
21883;DHT22;11106;47.864;13.054;2022-11-27T00:44:58;1.90;99.90
21883;DHT22;11106;47.864;13.054;2022-11-27T00:49:59;1.90;99.90
21883;DHT22;11106;47.864;13.054;2022-11-27T00:55:00;1.80;99.90
21883;DHT22;11106;47.864;13.054;2022-11-27T01:00:01;1.80;99.90
21883;DHT22;11106;47.864;13.054;2022-11-27T01:05:02;1.80;99.90
21883;DHT22;11106;47.864;13.054;2022-11-27T01:10:03;1.70;99.90
21883;DHT22;11106;47.864;13.054;2022-11-27T01:15:04;1.60;99.90
21883;DHT22;11106;47.864;13.054;2022-11-27T01:20:06;1.60;99.90
21883;DHT22;11106;47.864;13.054;2022-11-27T01:25:07;1.60;99.90
21883;DHT22;11106;47.864;13.054;2022-11-27T01:30:08;1.60;99.90
21883;DHT22;11106;47.864;13.054;2022-11-27T01:35:09;1.50;99.90
21883;DHT22;11106;47.864;13.054;2022-11-27T01:40:10;1.50;99.90
21883;DHT22;11106;47.864;13.054;2022-11-27T01:45:14;1.40;99.90
21883;DHT22;11106;47.864;13.054;2022-11-27T01:50:20;1.50;99.90
21883;DHT22;11106;47.864;13.054;2022-11-27T01:55:28;1.40;99.90
21883;DHT22;11106;47.864;13.054;2022-11-27T02:00:30;1.40;99.90
21883;DHT22;11106;47.864;13.054;2022-11-27T02:05:31;1.40;99.90
21883;DHT22;11106;47.864;13.054;2022-11-27T02:10:55;1.40;99.90
21883;DHT22;11106;47.864;13.054;2022-11-27T02:32:09;1.20;99.90
21883;DHT22;11106;47.864;13.054;2022-11-27T02:43:08;1.20;99.90
21883;DHT22;11106;47.864;13.054;2022-11-27T02:48:16;1.20;99.90
21883;DHT22;11106;47.864;13.054;2022-11-27T02:53:24;1.20;99.90
21883;DHT22;11106;47.864;13.054;2022-11-27T02:58:26;1.10;99.90
21883;DHT22;11106;47.864;13.054;2022-11-27T03:03:36;1.10;99.90
21883;DHT22;11106;47.864;13.054;2022-11-27T03:08:51;1.10;99.90
21883;DHT22;11106;47.864;13.054;2022-11-27T03:13:57;1.10;99.90
21883;DHT22;11106;47.864;13.054;2022-11-27T03:24:13;1.00;99.90
21883;DHT22;11106;47.864;13.054;2022-11-27T03:29:25;1.00;99.90
21883;DHT22;11106;47.864;13.054;2022-11-27T03:34:27;1.00;99.90
21883;DHT22;11106;47.864;13.054;2022-11-27T03:39:29;0.90;99.90
21883;DHT22;11106;47.864;13.054;2022-11-27T03:55:26;0.90;99.90
21883;DHT22;11106;47.864;13.054;2022-11-27T04:00:36;0.90;99.90
21883;DHT22;11106;47.864;13.054;2022-11-27T04:05:38;0.90;99.90
21883;DHT22;11106;47.864;13.054;2022-11-27T04:10:39;0.80;99.90
21883;DHT22;11106;47.864;13.054;2022-11-27T04:15:40;0.80;99.90
21883;DHT22;11106;47.864;13.054;2022-11-27T04:20:41;0.80;99.90
21883;DHT22;11106;47.864;13.054;2022-11-27T04:25:41;0.80;99.90
21883;DHT22;11106;47.864;13.054;2022-11-27T04:30:43;0.80;99.90
21883;DHT22;11106;47.864;13.054;2022-11-27T04:35:43;0.80;99.90
21883;DHT22;11106;47.864;13.054;2022-11-27T04:40:44;0.80;99.90
21883;DHT22;11106;47.864;13.054;2022-11-27T04:45:45;0.80;99.90
21883;DHT22;11106;47.864;13.054;2022-11-27T04:50:46;0.80;99.90
21883;DHT22;11106;47.864;13.054;2022-11-27T04:55:46;0.80;99.90
21883;DHT22;11106;47.864;13.054;2022-11-27T05:00:47;0.80;99.90
21883;DHT22;11106;47.864;13.054;2022-11-27T05:05:55;0.70;99.90
21883;DHT22;11106;47.864;13.054;2022-11-27T05:11:07;0.60;99.90
21883;DHT22;11106;47.864;13.054;2022-11-27T05:16:09;0.70;99.90
21883;DHT22;11106;47.864;13.054;2022-11-27T05:21:10;0.60;99.90
21883;DHT22;11106;47.864;13.054;2022-11-27T05:26:11;0.60;99.90
21883;DHT22;11106;47.864;13.054;2022-11-27T05:31:11;0.60;99.90
21883;DHT22;11106;47.864;13.054;2022-11-27T05:36:12;0.60;99.90
21883;DHT22;11106;47.864;13.054;2022-11-27T05:41:13;0.60;99.90
21883;DHT22;11106;47.864;13.054;2022-11-27T05:46:16;0.60;99.90
21883;DHT22;11106;47.864;13.054;2022-11-27T05:51:17;0.60;99.90
21883;DHT22;11106;47.864;13.054;2022-11-27T05:56:18;0.60;99.90
21883;DHT22;11106;47.864;13.054;2022-11-27T06:01:19;0.50;99.90
21883;DHT22;11106;47.864;13.054;2022-11-27T06:06:20;0.60;99.90
21883;DHT22;11106;47.864;13.054;2022-11-27T06:11:21;0.50;99.90
21883;DHT22;11106;47.864;13.054;2022-11-27T06:16:23;0.50;99.90
21883;DHT22;11106;47.864;13.054;2022-11-27T06:21:24;0.50;99.90
21883;DHT22;11106;47.864;13.054;2022-11-27T06:26:27;0.50;99.90
21883;DHT22;11106;47.864;13.054;2022-11-27T06:31:30;0.40;99.90
21883;DHT22;11106;47.864;13.054;2022-11-27T06:36:36;0.40;99.90
21883;DHT22;11106;47.864;13.054;2022-11-27T06:41:37;0.40;99.90
21883;DHT22;11106;47.864;13.054;2022-11-27T06:46:38;0.50;99.90
21883;DHT22;11106;47.864;13.054;2022-11-27T06:51:38;0.50;99.90
21883;DHT22;11106;47.864;13.054;2022-11-27T06:56:39;0.50;99.90
21883;DHT22;11106;47.864;13.054;2022-11-27T07:01:40;0.50;99.90
21883;DHT22;11106;47.864;13.054;2022-11-27T07:06:42;0.50;99.90
21883;DHT22;11106;47.864;13.054;2022-11-27T07:11:43;0.60;99.90
21883;DHT22;11106;47.864;13.054;2022-11-27T07:16:44;0.70;99.90
21883;DHT22;11106;47.864;13.054;2022-11-27T07:21:44;0.90;99.90
21883;DHT22;11106;47.864;13.054;2022-11-27T07:26:45;1.70;99.90
21883;DHT22;11106;47.864;13.054;2022-11-27T07:31:46;2.80;99.90
21883;DHT22;11106;47.864;13.054;2022-11-27T07:36:46;4.20;99.90
21883;DHT22;11106;47.864;13.054;2022-11-27T07:41:50;5.50;99.90
21883;DHT22;11106;47.864;13.054;2022-11-27T20:10:32;1.90;99.90
21883;DHT22;11106;47.864;13.054;2022-11-27T20:15:32;1.70;99.90
21883;DHT22;11106;47.864;13.054;2022-11-27T20:20:33;1.60;99.90
21883;DHT22;11106;47.864;13.054;2022-11-27T20:25:33;1.50;99.90
21883;DHT22;11106;47.864;13.054;2022-11-27T20:30:35;1.50;99.90
21883;DHT22;11106;47.864;13.054;2022-11-27T20:35:41;1.50;99.90
21883;DHT22;11106;47.864;13.054;2022-11-27T20:40:44;1.50;99.90
21883;DHT22;11106;47.864;13.054;2022-11-27T20:45:45;1.40;99.90
21883;DHT22;11106;47.864;13.054;2022-11-27T20:50:45;1.40;99.90
21883;DHT22;11106;47.864;13.054;2022-11-27T20:55:49;1.40;99.90
21883;DHT22;11106;47.864;13.054;2022-11-27T21:00:50;1.50;99.90
21883;DHT22;11106;47.864;13.054;2022-11-27T21:05:50;1.50;99.90
21883;DHT22;11106;47.864;13.054;2022-11-27T21:10:51;1.40;99.90
21883;DHT22;11106;47.864;13.054;2022-11-27T21:15:52;1.40;99.90
21883;DHT22;11106;47.864;13.054;2022-11-27T21:20:52;1.40;99.90
21883;DHT22;11106;47.864;13.054;2022-11-27T21:25:53;1.30;99.90
21883;DHT22;11106;47.864;13.054;2022-11-27T21:30:56;1.30;99.90
21883;DHT22;11106;47.864;13.054;2022-11-27T21:36:03;1.30;99.90
21883;DHT22;11106;47.864;13.054;2022-11-27T21:41:04;1.30;99.90
21883;DHT22;11106;47.864;13.054;2022-11-27T21:46:09;1.30;99.90
21883;DHT22;11106;47.864;13.054;2022-11-27T21:51:12;1.20;99.90
21883;DHT22;11106;47.864;13.054;2022-11-27T21:56:17;1.10;99.90
21883;DHT22;11106;47.864;13.054;2022-11-27T22:01:20;1.10;99.90
21883;DHT22;11106;47.864;13.054;2022-11-27T22:06:22;1.10;99.90
21883;DHT22;11106;47.864;13.054;2022-11-27T22:11:26;1.10;99.90
21883;DHT22;11106;47.864;13.054;2022-11-27T22:16:28;1.00;99.90
21883;DHT22;11106;47.864;13.054;2022-11-27T22:21:30;1.00;99.90
21883;DHT22;11106;47.864;13.054;2022-11-27T22:26:31;0.90;99.90
21883;DHT22;11106;47.864;13.054;2022-11-27T22:31:31;0.80;99.90
21883;DHT22;11106;47.864;13.054;2022-11-27T22:36:33;0.80;99.90
21883;DHT22;11106;47.864;13.054;2022-11-27T22:41:36;0.70;99.90
21883;DHT22;11106;47.864;13.054;2022-11-27T22:46:39;0.70;99.90
21883;DHT22;11106;47.864;13.054;2022-11-27T22:51:40;0.70;99.90
21883;DHT22;11106;47.864;13.054;2022-11-27T22:56:40;0.70;99.90
21883;DHT22;11106;47.864;13.054;2022-11-27T23:01:41;0.70;99.90
21883;DHT22;11106;47.864;13.054;2022-11-27T23:06:42;0.60;99.90
21883;DHT22;11106;47.864;13.054;2022-11-27T23:11:47;0.60;99.90
21883;DHT22;11106;47.864;13.054;2022-11-27T23:16:48;0.60;99.90
21883;DHT22;11106;47.864;13.054;2022-11-27T23:21:49;0.60;99.90
21883;DHT22;11106;47.864;13.054;2022-11-27T23:26:50;0.60;99.90
21883;DHT22;11106;47.864;13.054;2022-11-27T23:31:50;0.60;99.90
21883;DHT22;11106;47.864;13.054;2022-11-27T23:36:51;0.60;99.90
21883;DHT22;11106;47.864;13.054;2022-11-27T23:41:52;0.70;99.90
21883;DHT22;11106;47.864;13.054;2022-11-27T23:46:52;0.70;99.90
21883;DHT22;11106;47.864;13.054;2022-11-27T23:51:54;0.60;99.90
21883;DHT22;11106;47.864;13.054;2022-11-27T23:56:56;0.60;99.90
